createdAt,value
2019-04-01T00:01:55.272Z,5.73
2019-04-01T00:04:24.375Z,5.68
2019-04-01T00:06:53.473Z,5.65
2019-04-01T00:09:22.574Z,5.57
2019-04-01T00:11:51.654Z,5.61
2019-04-01T00:14:20.758Z,5.57
2019-04-01T00:16:49.844Z,5.65
2019-04-01T00:19:18.951Z,5.62
2019-04-01T00:21:48.045Z,5.64
2019-04-01T00:24:17.147Z,5.57
2019-04-01T00:26:46.230Z,5.52
2019-04-01T00:29:15.311Z,5.52
2019-04-01T00:31:44.426Z,5.48
2019-04-01T00:34:13.503Z,5.45
2019-04-01T00:36:42.606Z,5.43
2019-04-01T00:39:11.693Z,5.38
2019-04-01T00:41:53.814Z,5.41
2019-04-01T00:44:22.888Z,5.44
2019-04-01T00:46:51.988Z,5.38
2019-04-01T00:49:21.077Z,5.39
2019-04-01T00:51:50.202Z,5.35
2019-04-01T00:54:19.287Z,5.25
2019-04-01T00:56:48.407Z,5.17
2019-04-01T00:59:18.008Z,5.29
2019-04-01T01:01:47.108Z,5.24
2019-04-01T01:04:16.201Z,5.18
2019-04-01T01:06:45.296Z,5.13
2019-04-01T01:09:14.373Z,5.11
2019-04-01T01:11:43.467Z,5.07
2019-04-01T01:14:12.549Z,5.05
2019-04-01T01:16:41.656Z,4.96
2019-04-01T01:19:10.738Z,5.00
2019-04-01T01:21:39.848Z,4.98
2019-04-01T01:24:08.935Z,4.96
2019-04-01T01:26:38.049Z,4.94
2019-04-01T01:29:07.140Z,4.99
2019-04-01T01:31:36.236Z,4.88
2019-04-01T01:34:05.310Z,4.87
2019-04-01T01:36:34.580Z,4.81
2019-04-01T01:39:05.469Z,4.87
2019-04-01T01:41:34.572Z,4.76
2019-04-01T01:44:03.653Z,4.65
2019-04-01T01:46:32.757Z,4.77
2019-04-01T01:49:02.050Z,4.62
2019-04-01T01:51:31.150Z,4.65
2019-04-01T01:54:00.247Z,4.59
2019-04-01T01:56:29.366Z,4.49
2019-04-01T01:58:58.461Z,4.46
2019-04-01T02:01:27.562Z,4.53
2019-04-01T02:03:56.651Z,4.55
2019-04-01T02:06:25.746Z,4.60
2019-04-01T02:08:54.825Z,4.53
2019-04-01T02:11:23.928Z,4.46
2019-04-01T02:13:53.004Z,4.41
2019-04-01T02:16:22.094Z,4.40
2019-04-01T02:18:51.200Z,4.47
2019-04-01T02:21:20.290Z,4.38
2019-04-01T02:23:49.398Z,4.29
2019-04-01T02:26:18.478Z,4.26
2019-04-01T02:28:47.580Z,4.18
2019-04-01T02:31:16.661Z,4.24
2019-04-01T02:33:45.773Z,4.27
2019-04-01T02:36:14.849Z,4.19
2019-04-01T02:38:43.959Z,4.24
2019-04-01T02:41:13.062Z,4.20
2019-04-01T02:43:42.157Z,4.18
2019-04-01T02:46:11.306Z,4.18
2019-04-01T02:48:40.420Z,4.11
2019-04-01T02:51:09.521Z,3.98
2019-04-01T02:53:38.621Z,4.01
2019-04-01T02:56:07.692Z,4.02
2019-04-01T02:58:36.823Z,4.06
2019-04-01T03:01:05.900Z,4.05
2019-04-01T03:03:35.019Z,3.95
2019-04-01T03:06:04.138Z,4.00
2019-04-01T03:08:33.226Z,4.02
2019-04-01T03:11:02.327Z,3.92
2019-04-01T03:13:31.419Z,3.79
2019-04-01T03:16:00.628Z,3.79
2019-04-01T03:18:29.750Z,3.69
2019-04-01T03:20:58.833Z,3.74
2019-04-01T03:23:27.929Z,3.73
2019-04-01T03:25:57.015Z,3.83
2019-04-01T03:28:26.122Z,3.77
2019-04-01T03:30:55.209Z,3.80
2019-04-01T03:33:24.322Z,3.73
2019-04-01T03:35:53.398Z,3.80
2019-04-01T03:38:22.485Z,3.75
2019-04-01T03:40:51.594Z,3.79
2019-04-01T03:43:20.702Z,3.66
2019-04-01T03:45:49.797Z,3.69
2019-04-01T03:48:18.886Z,3.68
2019-04-01T03:50:47.989Z,3.66
2019-04-01T03:53:17.078Z,3.60
2019-04-01T03:55:46.233Z,3.53
2019-04-01T03:58:15.326Z,3.55
2019-04-01T04:00:44.447Z,3.46
2019-04-01T04:03:13.561Z,3.47
2019-04-01T04:05:42.633Z,3.52
2019-04-01T04:08:11.728Z,3.33
2019-04-01T04:10:40.850Z,3.34
2019-04-01T04:13:09.925Z,3.31
2019-04-01T04:15:39.043Z,3.35
2019-04-01T04:18:08.104Z,3.39
2019-04-01T04:20:37.207Z,3.31
2019-04-01T04:23:06.296Z,3.27
2019-04-01T04:25:35.696Z,3.37
2019-04-01T04:28:04.780Z,3.23
2019-04-01T04:30:33.972Z,3.30
2019-04-01T04:33:03.064Z,3.25
2019-04-01T04:35:32.176Z,3.29
2019-04-01T04:38:01.288Z,3.15
2019-04-01T04:40:30.374Z,3.16
2019-04-01T04:42:59.485Z,3.13
2019-04-01T04:45:28.567Z,3.15
2019-04-01T04:47:57.681Z,3.13
2019-04-01T04:50:26.757Z,3.13
2019-04-01T04:52:55.865Z,3.07
2019-04-01T04:55:24.979Z,3.06
2019-04-01T04:57:54.072Z,3.11
2019-04-01T05:00:23.178Z,3.11
2019-04-01T05:02:52.285Z,3.02
2019-04-01T05:05:21.362Z,2.96
2019-04-01T05:07:50.466Z,3.11
2019-04-01T05:10:19.544Z,3.00
2019-04-01T05:12:48.653Z,3.04
2019-04-01T05:15:17.740Z,3.03
2019-04-01T05:17:46.845Z,3.15
2019-04-01T05:20:16.741Z,3.15
2019-04-01T05:22:46.721Z,3.19
2019-04-01T05:25:15.815Z,3.20
2019-04-01T05:27:47.115Z,3.21
2019-04-01T05:30:17.703Z,3.21
2019-04-01T05:32:47.519Z,3.25
2019-04-01T05:35:16.593Z,3.26
2019-04-01T05:37:46.302Z,3.38
2019-04-01T05:40:15.395Z,3.36
2019-04-01T05:42:44.498Z,3.41
2019-04-01T05:45:13.691Z,3.51
2019-04-01T05:47:48.982Z,3.48
2019-04-01T05:50:18.062Z,3.57
2019-04-01T05:52:47.168Z,3.53
2019-04-01T05:55:16.251Z,3.52
2019-04-01T05:57:45.584Z,3.63
2019-04-01T06:00:20.993Z,3.67
2019-04-01T06:02:50.251Z,3.73
2019-04-01T06:05:19.340Z,3.79
2019-04-01T06:07:48.426Z,3.92
2019-04-01T06:10:17.523Z,3.93
2019-04-01T06:12:47.111Z,4.00
2019-04-01T06:15:16.225Z,4.09
2019-04-01T06:17:45.314Z,4.26
2019-04-01T06:20:14.411Z,5.23
2019-04-01T06:22:43.492Z,6.21
2019-04-01T06:25:12.633Z,7.51
2019-04-01T06:27:41.715Z,8.06
2019-04-01T06:30:10.923Z,7.94
2019-04-01T06:32:40.106Z,9.08
2019-04-01T06:35:09.511Z,9.61
2019-04-01T06:37:38.599Z,9.24
2019-04-01T06:40:08.204Z,9.87
2019-04-01T06:42:37.283Z,10.44
2019-04-01T06:45:06.750Z,10.80
2019-04-01T06:47:35.825Z,11.25
2019-04-01T06:50:05.279Z,12.43
2019-04-01T06:52:34.379Z,11.55
2019-04-01T06:55:03.610Z,11.26
2019-04-01T06:57:32.693Z,12.98
2019-04-01T07:00:01.813Z,11.79
2019-04-01T07:02:31.002Z,12.63
2019-04-01T07:05:00.382Z,12.72
2019-04-01T07:07:29.477Z,13.22
2019-04-01T07:09:58.584Z,14.23
2019-04-01T07:12:27.671Z,14.74
2019-04-01T07:14:56.780Z,14.52
2019-04-01T07:17:25.868Z,14.34
2019-04-01T07:19:54.972Z,15.79
2019-04-01T07:22:24.080Z,16.19
2019-04-01T07:24:53.291Z,16.05
2019-04-01T07:27:22.374Z,16.16
2019-04-01T07:29:51.507Z,16.51
2019-04-01T07:32:20.604Z,18.35
2019-04-01T07:34:49.908Z,16.81
2019-04-01T07:37:19.019Z,17.60
2019-04-01T07:39:48.106Z,17.41
2019-04-01T07:42:17.214Z,17.26
2019-04-01T07:44:46.306Z,16.55
2019-04-01T07:47:15.424Z,18.31
2019-04-01T07:49:44.523Z,18.17
2019-04-01T07:52:13.630Z,16.28
2019-04-01T07:54:42.924Z,17.89
2019-04-01T07:57:12.039Z,18.70
2019-04-01T07:59:41.261Z,18.83
2019-04-01T08:02:10.359Z,17.83
2019-04-01T08:04:39.454Z,18.71
2019-04-01T08:07:08.675Z,19.44
2019-04-01T08:09:37.764Z,19.45
2019-04-01T08:12:06.934Z,18.57
2019-04-01T08:14:36.122Z,19.73
2019-04-01T08:17:05.323Z,19.28
2019-04-01T08:19:34.397Z,18.15
2019-04-01T08:22:03.511Z,19.76
2019-04-01T08:24:32.610Z,19.69
2019-04-01T08:27:01.701Z,22.65
2019-04-01T08:29:30.966Z,21.44
2019-04-01T08:32:00.055Z,22.74
2019-04-01T08:34:29.175Z,22.93
2019-04-01T08:36:58.262Z,22.15
2019-04-01T08:39:27.542Z,21.84
2019-04-01T08:41:56.634Z,21.54
2019-04-01T08:44:25.743Z,21.69
2019-04-01T08:46:54.826Z,22.05
2019-04-01T08:49:23.939Z,22.69
2019-04-01T08:51:53.109Z,23.04
2019-04-01T08:54:22.210Z,21.99
2019-04-01T08:56:51.299Z,22.95
2019-04-01T08:59:20.836Z,24.41
2019-04-01T09:01:49.928Z,23.88
2019-04-01T09:04:19.252Z,24.49
2019-04-01T09:06:48.300Z,24.75
2019-04-01T09:09:17.406Z,23.67
2019-04-01T09:11:46.805Z,22.70
2019-04-01T09:14:16.160Z,24.45
2019-04-01T09:16:45.745Z,24.61
2019-04-01T09:19:14.843Z,26.04
2019-04-01T09:21:43.930Z,26.30
2019-04-01T09:24:13.031Z,26.51
2019-04-01T09:26:42.121Z,26.23
2019-04-01T09:29:11.228Z,26.62
2019-04-01T09:31:40.311Z,25.46
2019-04-01T09:34:09.415Z,25.84
2019-04-01T09:36:38.500Z,27.73
2019-04-01T09:39:07.783Z,27.59
2019-04-01T09:41:36.871Z,28.20
2019-04-01T09:44:06.060Z,27.18
2019-04-01T09:46:35.147Z,29.22
2019-04-01T09:49:04.372Z,27.92
2019-04-01T09:51:47.601Z,27.48
2019-04-01T09:54:04.275Z,27.57
2019-04-01T09:56:33.396Z,27.65
2019-04-01T09:59:02.508Z,28.87
2019-04-01T10:01:31.619Z,28.95
2019-04-01T10:04:00.837Z,28.53
2019-04-01T10:06:30.017Z,29.16
2019-04-01T10:08:59.104Z,29.70
2019-04-01T10:11:28.215Z,29.07
2019-04-01T10:13:57.336Z,27.26
2019-04-01T10:16:26.733Z,27.62
2019-04-01T10:18:55.833Z,29.48
2019-04-01T10:21:24.993Z,28.45
2019-04-01T10:23:54.089Z,28.54
2019-04-01T10:26:23.198Z,28.30
2019-04-01T10:28:52.305Z,27.40
2019-04-01T10:31:21.418Z,28.20
2019-04-01T10:33:50.525Z,28.89
2019-04-01T10:36:20.733Z,29.66
2019-04-01T10:38:50.461Z,28.60
2019-04-01T10:41:19.586Z,29.20
2019-04-01T10:43:48.679Z,28.92
2019-04-01T10:46:17.835Z,29.67
2019-04-01T10:48:46.941Z,28.31
2019-04-01T10:51:16.058Z,28.07
2019-04-01T10:53:45.176Z,29.37
2019-04-01T10:56:14.340Z,29.67
2019-04-01T10:58:43.535Z,28.12
2019-04-01T11:01:12.698Z,29.08
2019-04-01T11:03:41.884Z,29.46
2019-04-01T11:06:11.064Z,30.46
2019-04-01T11:08:40.207Z,31.03
2019-04-01T11:11:09.304Z,29.71
2019-04-01T11:13:38.415Z,30.60
2019-04-01T11:16:07.514Z,30.80
2019-04-01T11:18:36.656Z,30.25
2019-04-01T11:21:05.733Z,30.27
2019-04-01T11:23:34.849Z,29.75
2019-04-01T11:26:03.943Z,32.10
2019-04-01T11:28:34.671Z,31.15
2019-04-01T11:31:03.843Z,31.80
2019-04-01T11:33:33.080Z,30.40
2019-04-01T11:36:02.148Z,31.03
2019-04-01T11:38:31.242Z,30.02
2019-04-01T11:41:00.341Z,30.27
2019-04-01T11:43:29.503Z,30.80
2019-04-01T11:46:01.969Z,30.57
2019-04-01T11:48:31.417Z,29.93
2019-04-01T11:51:00.485Z,30.55
2019-04-01T11:53:29.604Z,30.52
2019-04-01T11:55:58.905Z,30.02
2019-04-01T11:58:28.026Z,29.72
2019-04-01T12:00:57.137Z,30.17
2019-04-01T12:03:26.254Z,29.48
2019-04-01T12:05:55.344Z,32.19
2019-04-01T12:08:24.749Z,31.43
2019-04-01T12:10:53.864Z,30.72
2019-04-01T12:13:23.009Z,30.15
2019-04-01T12:15:52.087Z,29.65
2019-04-01T12:18:21.207Z,31.59
2019-04-01T12:20:50.300Z,30.76
2019-04-01T12:23:19.491Z,30.51
2019-04-01T12:25:48.597Z,32.04
2019-04-01T12:28:17.709Z,32.02
2019-04-01T12:30:46.803Z,31.58
2019-04-01T12:33:15.925Z,30.37
2019-04-01T12:35:45.019Z,31.06
2019-04-01T12:38:14.194Z,29.25
2019-04-01T12:40:43.236Z,30.52
2019-04-01T12:43:12.358Z,30.47
2019-04-01T12:45:41.447Z,31.52
2019-04-01T12:48:10.575Z,30.94
2019-04-01T12:50:39.674Z,31.06
2019-04-01T12:53:08.860Z,28.70
2019-04-01T12:55:37.970Z,29.91
2019-04-01T12:58:07.083Z,30.48
2019-04-01T13:00:36.266Z,30.90
2019-04-01T13:03:05.379Z,31.92
2019-04-01T13:05:34.472Z,31.40
2019-04-01T13:08:03.600Z,30.27
2019-04-01T13:10:32.700Z,31.04
2019-04-01T13:13:01.792Z,29.55
2019-04-01T13:15:30.909Z,29.84
2019-04-01T13:17:59.995Z,28.47
2019-04-01T13:20:37.496Z,28.49
2019-04-01T13:22:59.939Z,29.04
2019-04-01T13:25:29.064Z,29.19
2019-04-01T13:27:58.156Z,29.01
2019-04-01T13:30:27.269Z,28.68
2019-04-01T13:32:56.362Z,28.88
2019-04-01T13:35:26.372Z,28.16
2019-04-01T13:37:55.493Z,28.59
2019-04-01T13:40:24.607Z,29.62
2019-04-01T13:42:53.708Z,29.12
2019-04-01T13:45:22.840Z,27.48
2019-04-01T13:47:51.917Z,26.01
2019-04-01T13:50:21.036Z,27.37
2019-04-01T13:52:50.129Z,27.01
2019-04-01T13:55:19.298Z,25.78
2019-04-01T13:57:48.417Z,25.64
2019-04-01T14:00:17.567Z,25.97
2019-04-01T14:02:46.668Z,27.87
2019-04-01T14:05:15.795Z,28.67
2019-04-01T14:07:44.889Z,28.14
2019-04-01T14:10:14.696Z,28.19
2019-04-01T14:12:43.815Z,27.76
2019-04-01T14:15:13.114Z,26.21
2019-04-01T14:17:42.230Z,26.98
2019-04-01T14:20:12.225Z,27.93
2019-04-01T14:22:44.178Z,28.22
2019-04-01T14:25:12.152Z,27.66
2019-04-01T14:27:41.269Z,25.96
2019-04-01T14:30:10.785Z,27.10
2019-04-01T14:32:39.896Z,27.48
2019-04-01T14:35:09.524Z,28.04
2019-04-01T14:37:39.767Z,27.77
2019-04-01T14:40:09.816Z,26.87
2019-04-01T14:42:39.846Z,26.90
2019-04-01T14:45:09.499Z,27.73
2019-04-01T14:47:55.557Z,26.86
2019-04-01T14:50:09.746Z,26.39
2019-04-01T14:52:38.872Z,25.63
2019-04-01T14:55:08.488Z,24.63
2019-04-01T14:57:37.597Z,25.41
2019-04-01T15:00:08.663Z,25.57
2019-04-01T15:02:37.770Z,25.06
2019-04-01T15:05:06.916Z,24.79
2019-04-01T15:07:36.036Z,25.39
2019-04-01T15:10:05.755Z,25.45
2019-04-01T15:12:34.883Z,24.63
2019-04-01T15:15:04.475Z,24.88
2019-04-01T15:17:36.719Z,24.09
2019-04-01T15:20:05.454Z,24.13
2019-04-01T15:22:34.571Z,24.55
2019-04-01T15:25:03.713Z,24.09
2019-04-01T15:27:33.605Z,24.04
2019-04-01T15:30:03.003Z,22.92
2019-04-01T15:32:32.109Z,22.74
2019-04-01T15:35:01.272Z,22.75
2019-04-01T15:37:32.176Z,22.14
2019-04-01T15:40:01.195Z,22.36
2019-04-01T15:42:30.300Z,23.14
2019-04-01T15:44:59.415Z,22.89
2019-04-01T15:47:28.528Z,22.23
2019-04-01T15:49:57.641Z,22.34
2019-04-01T15:52:26.812Z,22.04
2019-04-01T15:54:57.866Z,21.43
2019-04-01T15:57:27.174Z,21.43
2019-04-01T15:59:56.549Z,21.28
2019-04-01T16:02:25.648Z,20.83
2019-04-01T16:04:54.760Z,20.70
2019-04-01T16:07:23.861Z,20.63
2019-04-01T16:09:52.992Z,20.38
2019-04-01T16:12:22.086Z,19.66
2019-04-01T16:14:51.196Z,19.31
2019-04-01T16:17:20.307Z,19.14
2019-04-01T16:19:49.444Z,19.31
2019-04-01T16:22:18.531Z,18.87
2019-04-01T16:24:47.637Z,18.99
2019-04-01T16:27:16.758Z,18.42
2019-04-01T16:29:45.851Z,18.18
2019-04-01T16:32:14.965Z,17.99
2019-04-01T16:34:44.179Z,17.55
2019-04-01T16:37:13.294Z,17.54
2019-04-01T16:39:42.393Z,17.80
2019-04-01T16:42:11.510Z,17.65
2019-04-01T16:44:40.616Z,17.59
2019-04-01T16:47:10.341Z,17.36
2019-04-01T16:49:39.730Z,17.17
2019-04-01T16:52:08.845Z,16.87
2019-04-01T16:54:38.123Z,16.89
2019-04-01T16:57:07.237Z,16.65
2019-04-01T16:59:36.359Z,16.59
2019-04-01T17:02:17.272Z,16.47
2019-04-01T17:04:36.492Z,16.41
2019-04-01T17:07:05.604Z,16.32
2019-04-01T17:09:35.163Z,16.21
2019-04-01T17:12:05.102Z,16.01
2019-04-01T17:14:34.203Z,15.94
2019-04-01T17:17:03.310Z,15.60
2019-04-01T17:19:32.419Z,15.60
2019-04-01T17:22:02.236Z,15.44
2019-04-01T17:24:32.131Z,15.47
2019-04-01T17:27:06.040Z,15.01
2019-04-01T17:29:35.177Z,15.01
2019-04-01T17:32:04.450Z,14.96
2019-04-01T17:34:33.594Z,14.51
2019-04-01T17:37:02.691Z,14.51
2019-04-01T17:39:31.816Z,14.17
2019-04-01T17:42:00.924Z,14.10
2019-04-01T17:44:30.043Z,13.79
2019-04-01T17:46:59.154Z,13.80
2019-04-01T17:49:28.263Z,13.50
2019-04-01T17:51:57.360Z,13.36
2019-04-01T17:54:26.485Z,13.20
2019-04-01T17:56:55.584Z,13.19
2019-04-01T17:59:24.740Z,13.11
2019-04-01T18:01:56.923Z,12.85
2019-04-01T18:04:24.675Z,12.71
2019-04-01T18:06:53.774Z,12.68
2019-04-01T18:09:22.897Z,12.24
2019-04-01T18:11:51.990Z,11.94
2019-04-01T18:14:21.112Z,11.71
2019-04-01T18:16:50.245Z,11.65
2019-04-01T18:19:19.359Z,11.53
2019-04-01T18:21:48.456Z,11.47
2019-04-01T18:24:17.568Z,11.54
2019-04-01T18:26:46.664Z,11.55
2019-04-01T18:29:15.775Z,11.37
2019-04-01T18:31:44.863Z,11.38
2019-04-01T18:34:13.983Z,11.56
2019-04-01T18:36:43.077Z,11.71
2019-04-01T18:39:12.196Z,11.74
2019-04-01T18:41:41.293Z,11.74
2019-04-01T18:44:10.411Z,11.66
2019-04-01T18:46:39.512Z,11.62
2019-04-01T18:49:08.617Z,11.66
2019-04-01T18:51:37.712Z,11.70
2019-04-01T18:54:06.836Z,11.76
2019-04-01T18:56:35.943Z,11.81
2019-04-01T18:59:05.063Z,11.83
2019-04-01T19:01:34.216Z,11.69
2019-04-01T19:04:03.352Z,11.77
2019-04-01T19:06:32.452Z,11.60
2019-04-01T19:09:09.243Z,11.52
2019-04-01T19:11:32.379Z,11.34
2019-04-01T19:14:01.536Z,11.08
2019-04-01T19:16:30.609Z,11.18
2019-04-01T19:18:59.708Z,10.89
2019-04-01T19:21:28.803Z,10.90
2019-04-01T19:23:57.932Z,10.74
2019-04-01T19:26:27.026Z,10.65
2019-04-01T19:28:58.262Z,10.64
2019-04-01T19:31:26.943Z,10.62
2019-04-01T19:33:56.051Z,10.58
2019-04-01T19:36:25.139Z,10.58
2019-04-01T19:38:54.463Z,10.50
2019-04-01T19:41:23.841Z,10.54
2019-04-01T19:43:52.946Z,10.54
2019-04-01T19:46:22.071Z,10.57
2019-04-01T19:48:51.173Z,10.62
2019-04-01T19:51:20.287Z,10.67
2019-04-01T19:53:49.384Z,10.65
2019-04-01T19:56:18.500Z,10.66
2019-04-01T19:58:47.608Z,10.66
2019-04-01T20:01:16.762Z,10.55
2019-04-01T20:03:45.852Z,10.56
2019-04-01T20:06:14.959Z,10.53
2019-04-01T20:08:44.060Z,10.56
2019-04-01T20:11:13.183Z,10.56
2019-04-01T20:13:42.847Z,10.44
2019-04-01T20:16:12.701Z,10.50
2019-04-01T20:18:42.040Z,10.46
2019-04-01T20:21:11.157Z,10.43
2019-04-01T20:23:40.575Z,10.34
2019-04-01T20:26:09.698Z,10.26
2019-04-01T20:28:38.817Z,10.26
2019-04-01T20:31:07.950Z,10.20
2019-04-01T20:33:37.089Z,10.18
2019-04-01T20:36:06.438Z,10.14
2019-04-01T20:38:35.556Z,10.19
2019-04-01T20:41:04.783Z,10.25
2019-04-01T20:43:33.877Z,10.05
2019-04-01T20:46:02.976Z,9.97
2019-04-01T20:48:33.087Z,9.90
2019-04-01T20:51:02.252Z,9.89
2019-04-01T20:53:31.370Z,9.72
2019-04-01T20:56:00.539Z,9.74
2019-04-01T20:58:29.656Z,9.71
2019-04-01T21:01:00.208Z,9.73
2019-04-01T21:03:30.238Z,9.80
2019-04-01T21:05:59.595Z,9.80
2019-04-01T21:08:28.709Z,9.80
2019-04-01T21:10:57.805Z,9.73
2019-04-01T21:13:26.912Z,9.62
2019-04-01T21:15:56.000Z,9.53
2019-04-01T21:18:25.419Z,9.49
2019-04-01T21:20:54.501Z,9.47
2019-04-01T21:23:23.619Z,9.44
2019-04-01T21:25:52.703Z,9.43
2019-04-01T21:28:23.938Z,9.43
2019-04-01T21:30:52.620Z,9.36
2019-04-01T21:33:21.728Z,9.26
2019-04-01T21:35:50.819Z,9.23
2019-04-01T21:38:19.934Z,9.18
2019-04-01T21:40:49.034Z,9.21
2019-04-01T21:43:20.080Z,9.05
2019-04-01T21:45:48.959Z,9.04
2019-04-01T21:48:18.103Z,9.06
2019-04-01T21:50:47.189Z,8.95
2019-04-01T21:53:16.322Z,8.85
2019-04-01T21:55:45.414Z,8.85
2019-04-01T21:58:14.522Z,8.82
2019-04-01T22:00:59.385Z,8.84
2019-04-01T22:03:28.502Z,8.71
2019-04-01T22:05:57.589Z,8.75
2019-04-01T22:08:27.931Z,8.67
2019-04-01T22:10:57.026Z,8.57
2019-04-01T22:13:27.258Z,8.53
2019-04-01T22:15:56.497Z,8.42
2019-04-01T22:18:25.597Z,8.32
2019-04-01T22:20:54.727Z,8.40
2019-04-01T22:23:23.817Z,8.36
2019-04-01T22:25:52.937Z,8.31
2019-04-01T22:28:22.228Z,8.24
2019-04-01T22:30:51.610Z,8.28
2019-04-01T22:33:20.697Z,8.38
2019-04-01T22:35:49.801Z,8.35
2019-04-01T22:38:25.073Z,8.31
2019-04-01T22:40:49.719Z,8.27
2019-04-01T22:43:18.801Z,8.23
2019-04-01T22:45:49.093Z,8.18
2019-04-01T22:48:18.277Z,8.22
2019-04-01T22:50:47.390Z,8.33
2019-04-01T22:53:16.491Z,8.17
2019-04-01T22:55:45.598Z,8.25
2019-04-01T22:58:14.695Z,8.13
2019-04-01T23:00:43.831Z,8.15
2019-04-01T23:03:12.916Z,8.10
2019-04-01T23:05:42.023Z,8.17
2019-04-01T23:08:11.103Z,8.25
2019-04-01T23:10:40.207Z,8.29
2019-04-01T23:13:09.288Z,8.33
2019-04-01T23:15:38.406Z,8.38
2019-04-01T23:18:07.524Z,8.46
2019-04-01T23:20:36.606Z,8.48
2019-04-01T23:23:05.699Z,8.55
2019-04-01T23:25:34.804Z,8.48
2019-04-01T23:28:03.899Z,8.53
2019-04-01T23:30:33.015Z,8.59
2019-04-01T23:33:02.102Z,8.48
2019-04-01T23:35:31.185Z,8.50
2019-04-01T23:38:00.288Z,8.49
2019-04-01T23:40:29.374Z,8.42
2019-04-01T23:42:58.480Z,8.50
2019-04-01T23:45:27.573Z,8.43
2019-04-01T23:47:56.695Z,8.37
2019-04-01T23:50:25.824Z,8.37
2019-04-01T23:52:54.967Z,8.44
2019-04-01T23:55:24.037Z,8.46
2019-04-01T23:57:54.034Z,8.45
